createdAt,value
2022-11-10T00:00:40.782Z,22.85
2022-11-10T00:01:52.218Z,23.70
2022-11-10T00:03:04.641Z,20.52
2022-11-10T00:04:16.162Z,21.48
2022-11-10T00:05:27.655Z,23.17
2022-11-10T00:06:41.087Z,19.67
2022-11-10T00:07:52.686Z,20.63
2022-11-10T00:09:04.133Z,20.13
2022-11-10T00:10:15.869Z,22.80
2022-11-10T00:11:27.306Z,19.10
2022-11-10T00:12:39.241Z,22.33
2022-11-10T00:14:09.310Z,21.33
2022-11-10T00:15:39.065Z,16.27
2022-11-10T00:17:02.451Z,25.15
2022-11-10T00:18:14.113Z,19.50
2022-11-10T00:19:25.629Z,23.25
2022-11-10T00:20:37.298Z,21.65
2022-11-10T00:21:48.765Z,17.02
2022-11-10T00:23:00.222Z,26.42
2022-11-10T00:24:11.694Z,23.35
2022-11-10T00:25:23.993Z,23.50
2022-11-10T00:26:35.477Z,21.25
2022-11-10T00:27:46.991Z,22.02
2022-11-10T00:28:58.411Z,21.00
2022-11-10T00:30:10.048Z,19.05
2022-11-10T00:31:21.531Z,18.27
2022-11-10T00:32:32.953Z,22.20
2022-11-10T00:33:44.702Z,18.40
2022-11-10T00:34:56.132Z,17.67
2022-11-10T00:36:07.665Z,21.67
2022-11-10T00:37:19.214Z,21.92
2022-11-10T00:38:30.735Z,20.80
2022-11-10T00:39:42.136Z,18.75
2022-11-10T00:40:53.538Z,22.60
2022-11-10T00:42:05.414Z,22.58
2022-11-10T00:43:16.840Z,19.02
2022-11-10T00:44:28.293Z,17.25
2022-11-10T00:45:42.061Z,21.67
2022-11-10T00:46:53.486Z,23.50
2022-11-10T00:48:05.038Z,20.88
2022-11-10T00:49:16.522Z,23.42
2022-11-10T00:50:30.923Z,18.83
2022-11-10T00:51:42.535Z,22.38
2022-11-10T00:52:56.363Z,24.08
2022-11-10T00:54:07.853Z,22.00
2022-11-10T00:55:19.278Z,25.58
2022-11-10T00:56:30.690Z,17.92
2022-11-10T00:57:42.252Z,22.73
2022-11-10T00:58:53.665Z,25.30
2022-11-10T01:00:05.326Z,19.65
2022-11-10T01:01:17.778Z,27.20
2022-11-10T01:02:29.279Z,18.20
2022-11-10T01:03:41.139Z,21.95
2022-11-10T01:04:52.546Z,20.73
2022-11-10T01:06:11.409Z,21.00
2022-11-10T01:07:22.838Z,24.92
2022-11-10T01:08:34.541Z,21.55
2022-11-10T01:09:45.995Z,22.70
2022-11-10T01:11:17.643Z,22.10
2022-11-10T01:12:30.245Z,27.30
2022-11-10T01:13:42.083Z,26.83
2022-11-10T01:14:53.501Z,22.33
2022-11-10T01:16:05.821Z,18.25
2022-11-10T01:17:17.312Z,18.88
2022-11-10T01:18:28.764Z,20.52
2022-11-10T01:19:41.815Z,18.30
2022-11-10T01:20:53.247Z,20.83
2022-11-10T01:22:04.738Z,18.17
2022-11-10T01:23:16.142Z,18.70
2022-11-10T01:24:27.614Z,16.23
2022-11-10T01:25:39.040Z,20.42
2022-11-10T01:26:50.561Z,21.45
2022-11-10T01:28:02.022Z,16.92
2022-11-10T01:29:13.513Z,16.08
2022-11-10T01:30:25.092Z,20.35
2022-11-10T01:31:36.518Z,21.90
2022-11-10T01:32:48.014Z,32.33
2022-11-10T01:34:00.269Z,34.22
2022-11-10T01:35:11.763Z,56.30
2022-11-10T01:36:23.178Z,42.80
2022-11-10T01:37:34.611Z,28.48
2022-11-10T01:38:46.341Z,49.55
2022-11-10T01:39:57.866Z,59.83
2022-11-10T01:41:10.444Z,63.42
2022-11-10T01:42:26.133Z,36.05
2022-11-10T01:43:37.922Z,34.13
2022-11-10T01:45:12.124Z,26.20
2022-11-10T01:46:23.535Z,22.40
2022-11-10T01:47:34.970Z,21.80
2022-11-10T01:48:47.985Z,28.35
2022-11-10T01:49:59.457Z,18.05
2022-11-10T01:51:13.850Z,20.45
2022-11-10T01:52:25.266Z,22.70
2022-11-10T01:53:38.708Z,13.65
2022-11-10T01:54:50.227Z,20.30
2022-11-10T01:56:02.891Z,23.60
2022-11-10T01:57:15.199Z,23.20
2022-11-10T01:58:30.089Z,28.40
2022-11-10T01:59:48.384Z,24.08
2022-11-10T02:00:59.955Z,23.05
2022-11-10T02:02:15.909Z,16.70
2022-11-10T02:03:40.474Z,17.08
2022-11-10T02:04:52.950Z,27.70
2022-11-10T02:06:04.485Z,22.92
2022-11-10T02:07:16.164Z,20.13
2022-11-10T02:08:27.903Z,26.55
2022-11-10T02:09:40.354Z,24.58
2022-11-10T02:10:51.794Z,25.65
2022-11-10T02:12:03.505Z,24.58
2022-11-10T02:13:14.980Z,20.15
2022-11-10T02:14:26.630Z,27.23
2022-11-10T02:15:38.091Z,39.17
2022-11-10T02:16:49.583Z,24.67
2022-11-10T02:18:01.005Z,25.42
2022-11-10T02:19:38.610Z,26.25
2022-11-10T02:20:50.086Z,28.63
2022-11-10T02:22:01.518Z,30.00
2022-11-10T02:23:14.354Z,25.35
2022-11-10T02:24:25.757Z,21.98
2022-11-10T02:25:37.686Z,25.23
2022-11-10T02:26:52.798Z,19.30
2022-11-10T02:28:04.313Z,19.20
2022-11-10T02:29:15.831Z,27.73
2022-11-10T02:30:27.971Z,18.67
2022-11-10T02:31:39.513Z,14.15
2022-11-10T02:32:50.935Z,22.80
2022-11-10T02:34:02.348Z,16.08
2022-11-10T02:35:13.768Z,21.33
2022-11-10T02:36:25.196Z,18.15
2022-11-10T02:37:36.646Z,18.52
2022-11-10T02:38:48.139Z,17.00
2022-11-10T02:39:59.586Z,16.67
2022-11-10T02:41:11.022Z,16.40
2022-11-10T02:42:22.453Z,12.20
2022-11-10T02:43:34.638Z,15.75
2022-11-10T02:44:46.087Z,17.67
2022-11-10T02:45:57.520Z,22.77
2022-11-10T02:47:08.959Z,20.90
2022-11-10T02:48:20.537Z,24.05
2022-11-10T02:49:32.163Z,20.63
2022-11-10T02:50:44.003Z,24.95
2022-11-10T02:51:55.412Z,18.30
2022-11-10T02:53:07.052Z,23.75
2022-11-10T02:54:18.525Z,21.50
2022-11-10T02:55:30.094Z,17.83
2022-11-10T02:56:41.541Z,19.25
2022-11-10T02:57:52.966Z,17.73
2022-11-10T02:59:05.100Z,13.68
2022-11-10T03:00:16.726Z,13.23
2022-11-10T03:01:28.187Z,16.95
2022-11-10T03:02:39.645Z,16.30
2022-11-10T03:03:51.206Z,21.30
2022-11-10T03:05:02.615Z,17.67
2022-11-10T03:06:14.218Z,17.25
2022-11-10T03:07:25.670Z,15.35
2022-11-10T03:08:38.899Z,18.20
2022-11-10T03:09:50.721Z,14.35
2022-11-10T03:11:02.211Z,12.57
2022-11-10T03:12:13.629Z,16.10
2022-11-10T03:13:27.454Z,16.85
2022-11-10T03:14:47.011Z,13.65
2022-11-10T03:15:58.417Z,15.52
2022-11-10T03:17:09.839Z,14.00
2022-11-10T03:18:21.322Z,16.05
2022-11-10T03:19:32.726Z,15.60
2022-11-10T03:20:46.788Z,14.52
2022-11-10T03:21:58.202Z,18.45
2022-11-10T03:23:09.876Z,20.05
2022-11-10T03:24:21.284Z,15.15
2022-11-10T03:25:33.645Z,22.75
2022-11-10T03:26:45.175Z,18.20
2022-11-10T03:27:56.640Z,19.88
2022-11-10T03:29:08.150Z,16.95
2022-11-10T03:30:19.585Z,23.55
2022-11-10T03:31:31.171Z,21.27
2022-11-10T03:32:42.701Z,19.67
2022-11-10T03:33:54.110Z,24.27
2022-11-10T03:35:05.786Z,28.70
2022-11-10T03:36:17.286Z,28.50
2022-11-10T03:37:28.735Z,24.58
2022-11-10T03:38:40.208Z,29.52
2022-11-10T03:39:51.635Z,21.63
2022-11-10T03:41:20.164Z,20.95
2022-11-10T03:42:32.026Z,23.42
2022-11-10T03:43:43.447Z,23.52
2022-11-10T03:44:54.850Z,27.83
2022-11-10T03:46:06.302Z,18.98
2022-11-10T03:47:17.746Z,21.13
2022-11-10T03:48:29.157Z,30.20
2022-11-10T03:49:40.654Z,23.15
2022-11-10T03:50:52.133Z,29.40
2022-11-10T03:52:03.604Z,21.70
2022-11-10T03:53:15.035Z,27.63
2022-11-10T03:54:26.487Z,22.05
2022-11-10T03:55:37.910Z,24.50
2022-11-10T03:56:49.341Z,26.20
2022-11-10T03:58:01.518Z,27.98
2022-11-10T03:59:13.432Z,25.55
2022-11-10T04:00:25.119Z,29.10
2022-11-10T04:01:36.626Z,23.48
2022-11-10T04:02:48.069Z,26.42
2022-11-10T04:04:01.699Z,26.58
2022-11-10T04:05:31.608Z,28.60
2022-11-10T04:07:01.540Z,18.15
2022-11-10T04:08:32.869Z,36.53
2022-11-10T04:09:44.322Z,28.30
2022-11-10T04:10:55.731Z,30.70
2022-11-10T04:12:25.595Z,31.20
2022-11-10T04:13:55.504Z,27.42
2022-11-10T04:15:25.653Z,33.20
2022-11-10T04:16:37.083Z,29.17
2022-11-10T04:17:49.289Z,45.88
2022-11-10T04:19:01.099Z,43.00
2022-11-10T04:20:12.676Z,23.52
2022-11-10T04:21:24.123Z,34.55
2022-11-10T04:22:53.961Z,22.33
2022-11-10T04:24:05.879Z,37.78
2022-11-10T04:25:17.315Z,29.77
2022-11-10T04:26:28.754Z,27.35
2022-11-10T04:27:40.233Z,46.95
2022-11-10T04:28:52.691Z,28.13
2022-11-10T04:30:04.365Z,35.38
2022-11-10T04:31:16.809Z,29.67
2022-11-10T04:32:28.246Z,48.22
2022-11-10T04:33:39.994Z,29.02
2022-11-10T04:34:51.558Z,33.60
2022-11-10T04:36:03.303Z,19.15
2022-11-10T04:37:14.705Z,17.00
2022-11-10T04:38:26.118Z,39.63
2022-11-10T04:39:37.553Z,21.98
2022-11-10T04:40:48.971Z,22.98
2022-11-10T04:42:02.691Z,20.25
2022-11-10T04:43:14.477Z,30.45
2022-11-10T04:44:28.702Z,32.00
2022-11-10T04:45:40.321Z,29.13
2022-11-10T04:46:51.745Z,25.63
2022-11-10T04:48:03.207Z,28.27
2022-11-10T04:49:14.629Z,25.35
2022-11-10T04:50:26.054Z,29.55
2022-11-10T04:51:38.523Z,27.58
2022-11-10T04:52:50.015Z,27.63
2022-11-10T04:54:01.658Z,27.60
2022-11-10T04:55:13.089Z,35.15
2022-11-10T04:56:25.041Z,30.27
2022-11-10T04:57:36.475Z,27.30
2022-11-10T04:58:48.168Z,25.05
2022-11-10T04:59:59.570Z,26.52
2022-11-10T05:01:12.640Z,30.00
2022-11-10T05:02:24.119Z,16.52
2022-11-10T05:03:35.561Z,26.63
2022-11-10T05:04:46.973Z,26.30
2022-11-10T05:05:58.401Z,29.38
2022-11-10T05:07:09.889Z,53.08
2022-11-10T05:08:21.374Z,57.85
2022-11-10T05:09:32.975Z,27.38
2022-11-10T05:10:44.495Z,43.97
2022-11-10T05:11:55.927Z,34.65
2022-11-10T05:13:07.386Z,51.35
2022-11-10T05:14:18.825Z,69.25
2022-11-10T05:15:30.935Z,69.43
2022-11-10T05:16:42.372Z,67.97
2022-11-10T05:17:54.362Z,51.80
2022-11-10T05:19:06.015Z,38.97
2022-11-10T05:20:18.254Z,72.15
2022-11-10T05:21:29.884Z,40.47
2022-11-10T05:22:47.946Z,33.97
2022-11-10T05:24:00.569Z,41.97
2022-11-10T05:25:12.068Z,46.88
2022-11-10T05:26:23.465Z,35.17
2022-11-10T05:27:34.949Z,31.70
2022-11-10T05:28:46.465Z,36.53
2022-11-10T05:29:59.051Z,35.60
2022-11-10T05:31:10.757Z,28.67
2022-11-10T05:32:22.297Z,22.52
2022-11-10T05:33:34.182Z,25.88
2022-11-10T05:34:45.586Z,27.15
2022-11-10T05:35:57.057Z,23.73
2022-11-10T05:37:08.529Z,25.80
2022-11-10T05:38:20.151Z,29.75
2022-11-10T05:39:31.598Z,24.83
2022-11-10T05:40:43.046Z,26.80
2022-11-10T05:41:54.491Z,22.80
2022-11-10T05:43:05.951Z,24.50
2022-11-10T05:44:19.879Z,25.25
2022-11-10T05:45:31.374Z,24.30
2022-11-10T05:46:42.988Z,22.48
2022-11-10T05:47:54.751Z,24.33
2022-11-10T05:49:06.205Z,27.70
2022-11-10T05:50:18.200Z,18.90
2022-11-10T05:51:29.632Z,19.98
2022-11-10T05:52:46.258Z,18.67
2022-11-10T05:54:00.738Z,22.98
2022-11-10T05:55:13.259Z,17.60
2022-11-10T05:56:24.678Z,19.67
2022-11-10T05:57:37.692Z,17.98
2022-11-10T05:58:49.133Z,19.70
2022-11-10T06:00:00.561Z,22.40
2022-11-10T06:01:11.992Z,19.80
2022-11-10T06:02:23.424Z,17.73
2022-11-10T06:03:34.949Z,20.25
2022-11-10T06:04:46.476Z,21.45
2022-11-10T06:05:57.980Z,20.80
2022-11-10T06:07:09.501Z,21.60
2022-11-10T06:08:21.070Z,21.27
2022-11-10T06:09:32.749Z,23.20
2022-11-10T06:10:44.764Z,18.20
2022-11-10T06:11:56.198Z,22.58
2022-11-10T06:13:07.667Z,21.80
2022-11-10T06:14:19.045Z,21.13
2022-11-10T06:15:30.598Z,22.95
2022-11-10T06:16:42.045Z,23.85
2022-11-10T06:17:53.848Z,24.67
2022-11-10T06:19:05.331Z,25.85
2022-11-10T06:20:19.746Z,17.52
2022-11-10T06:21:31.148Z,24.02
2022-11-10T06:22:42.700Z,24.48
2022-11-10T06:23:54.093Z,26.50
2022-11-10T06:25:05.922Z,29.10
2022-11-10T06:26:17.566Z,37.60
2022-11-10T06:27:29.198Z,29.65
2022-11-10T06:28:40.653Z,40.60
2022-11-10T06:29:52.114Z,38.63
2022-11-10T06:31:03.563Z,38.28
2022-11-10T06:32:15.230Z,37.25
2022-11-10T06:33:26.663Z,35.50
2022-11-10T06:34:38.100Z,42.25
2022-11-10T06:35:49.552Z,39.17
2022-11-10T06:37:01.007Z,31.23
2022-11-10T06:38:15.182Z,31.70
2022-11-10T06:39:26.611Z,32.60
2022-11-10T06:40:38.316Z,30.50
2022-11-10T06:41:49.815Z,26.02
2022-11-10T06:43:01.783Z,32.15
2022-11-10T06:44:13.224Z,28.08
2022-11-10T06:45:30.846Z,35.90
2022-11-10T06:46:42.612Z,32.15
2022-11-10T06:48:01.001Z,30.88
2022-11-10T06:49:12.492Z,27.08
2022-11-10T06:50:23.942Z,28.17
2022-11-10T06:51:35.390Z,32.47
2022-11-10T06:52:53.463Z,32.13
2022-11-10T06:54:05.105Z,33.65
2022-11-10T06:55:16.617Z,26.25
2022-11-10T06:56:28.077Z,32.03
2022-11-10T06:57:39.756Z,39.00
2022-11-10T06:58:51.232Z,28.25
2022-11-10T07:00:02.891Z,27.60
2022-11-10T07:01:17.576Z,29.50
2022-11-10T07:02:31.555Z,26.77
2022-11-10T07:04:05.194Z,34.58
2022-11-10T07:05:15.454Z,30.88
2022-11-10T07:06:26.913Z,28.38
2022-11-10T07:07:38.337Z,36.30
2022-11-10T07:08:49.897Z,31.17
2022-11-10T07:10:06.585Z,42.95
2022-11-10T07:11:18.603Z,57.58
2022-11-10T07:12:30.077Z,39.38
2022-11-10T07:13:41.566Z,38.15
2022-11-10T07:14:52.978Z,31.35
2022-11-10T07:16:08.185Z,38.45
2022-11-10T07:17:19.637Z,29.17
2022-11-10T07:18:31.077Z,42.22
2022-11-10T07:19:42.485Z,41.67
2022-11-10T07:20:53.909Z,44.58
2022-11-10T07:22:10.808Z,61.60
2022-11-10T07:23:23.089Z,43.20
2022-11-10T07:24:34.902Z,44.72
2022-11-10T07:25:46.440Z,55.08
2022-11-10T07:26:57.890Z,62.10
2022-11-10T07:28:10.721Z,44.22
2022-11-10T07:29:22.723Z,40.22
2022-11-10T07:30:34.855Z,41.75
2022-11-10T07:31:46.302Z,26.73
2022-11-10T07:32:58.910Z,27.98
2022-11-10T07:34:10.343Z,28.55
2022-11-10T07:35:21.957Z,24.92
2022-11-10T07:36:33.426Z,27.00
2022-11-10T07:37:44.876Z,28.90
2022-11-10T07:38:56.304Z,30.52
2022-11-10T07:40:08.001Z,27.13
2022-11-10T07:41:19.429Z,27.80
2022-11-10T07:42:30.894Z,28.17
2022-11-10T07:43:42.313Z,28.85
2022-11-10T07:44:53.719Z,28.23
2022-11-10T07:46:05.238Z,28.55
2022-11-10T07:47:16.687Z,26.15
2022-11-10T07:48:28.193Z,29.25
2022-11-10T07:49:39.656Z,29.75
2022-11-10T07:50:51.114Z,29.33
2022-11-10T07:52:02.627Z,31.42
2022-11-10T07:53:15.399Z,33.33
2022-11-10T07:54:26.836Z,30.50
2022-11-10T07:55:39.070Z,40.47
2022-11-10T07:56:50.542Z,30.20
2022-11-10T07:58:01.996Z,27.15
2022-11-10T07:59:13.429Z,32.90
2022-11-10T08:00:25.033Z,34.55
2022-11-10T08:01:36.552Z,30.92
2022-11-10T08:02:48.064Z,34.85
2022-11-10T08:03:59.694Z,38.35
2022-11-10T08:05:11.130Z,30.40
2022-11-10T08:06:23.108Z,34.33
2022-11-10T08:07:34.682Z,51.70
2022-11-10T08:08:49.126Z,55.85
2022-11-10T08:10:00.530Z,42.13
2022-11-10T08:11:12.269Z,42.40
2022-11-10T08:12:23.690Z,35.45
2022-11-10T08:13:35.273Z,37.58
2022-11-10T08:14:46.679Z,35.20
2022-11-10T08:15:59.546Z,33.15
2022-11-10T08:17:11.062Z,31.20
2022-11-10T08:18:23.331Z,31.98
2022-11-10T08:19:34.813Z,32.92
2022-11-10T08:20:46.309Z,34.78
2022-11-10T08:21:57.722Z,29.25
2022-11-10T08:23:09.476Z,33.33
2022-11-10T08:24:20.963Z,32.97
2022-11-10T08:25:35.399Z,22.23
2022-11-10T08:26:47.112Z,29.17
2022-11-10T08:28:01.696Z,23.65
2022-11-10T08:29:13.186Z,26.35
2022-11-10T08:30:24.791Z,27.42
2022-11-10T08:31:38.237Z,23.88
2022-11-10T08:32:49.658Z,26.10
2022-11-10T08:34:01.117Z,20.55
2022-11-10T08:35:12.551Z,29.08
2022-11-10T08:36:24.051Z,27.55
2022-11-10T08:37:35.526Z,23.42
2022-11-10T08:38:46.950Z,24.50
2022-11-10T08:39:58.398Z,25.50
2022-11-10T08:41:10.062Z,22.63
2022-11-10T08:42:23.802Z,23.27
2022-11-10T08:43:35.227Z,21.50
2022-11-10T08:44:46.658Z,21.05
2022-11-10T08:45:58.464Z,27.52
2022-11-10T08:47:09.891Z,20.40
2022-11-10T08:48:21.346Z,25.00
2022-11-10T08:49:32.804Z,28.13
2022-11-10T08:50:44.505Z,27.52
2022-11-10T08:51:56.079Z,23.85
2022-11-10T08:53:09.851Z,21.30
2022-11-10T08:54:21.299Z,28.00
2022-11-10T08:55:35.186Z,18.52
2022-11-10T08:56:46.632Z,23.33
2022-11-10T08:57:59.659Z,25.40
2022-11-10T08:59:11.277Z,24.42
2022-11-10T09:00:22.755Z,25.70
2022-11-10T09:01:36.527Z,22.33
2022-11-10T09:02:47.979Z,29.10
2022-11-10T09:03:59.443Z,22.33
2022-11-10T09:05:10.900Z,24.67
2022-11-10T09:06:22.523Z,22.80
2022-11-10T09:07:42.170Z,22.27
2022-11-10T09:08:53.660Z,25.92
2022-11-10T09:10:08.348Z,28.05
2022-11-10T09:11:19.895Z,22.80
2022-11-10T09:12:31.393Z,26.13
2022-11-10T09:13:42.849Z,22.10
2022-11-10T09:14:54.306Z,24.90
2022-11-10T09:16:08.624Z,22.65
2022-11-10T09:17:20.109Z,22.15
2022-11-10T09:18:31.572Z,24.65
2022-11-10T09:19:43.069Z,20.27
2022-11-10T09:20:54.764Z,21.35
2022-11-10T09:22:06.337Z,30.08
2022-11-10T09:23:19.195Z,26.70
2022-11-10T09:24:31.652Z,29.38
2022-11-10T09:25:43.562Z,32.45
2022-11-10T09:26:55.092Z,25.35
2022-11-10T09:28:11.479Z,24.92
2022-11-10T09:29:26.975Z,22.70
2022-11-10T09:30:38.447Z,23.20
2022-11-10T09:31:50.016Z,24.10
2022-11-10T09:33:02.587Z,24.90
2022-11-10T09:34:14.274Z,22.75
2022-11-10T09:35:26.221Z,28.63
2022-11-10T09:36:40.275Z,25.88
2022-11-10T09:37:51.756Z,19.90
2022-11-10T09:39:03.222Z,19.80
2022-11-10T09:40:21.227Z,22.52
2022-11-10T09:41:32.953Z,21.13
2022-11-10T09:42:46.172Z,21.73
2022-11-10T09:44:02.333Z,21.70
2022-11-10T09:45:19.942Z,27.33
2022-11-10T09:46:35.226Z,24.85
2022-11-10T09:47:57.971Z,20.42
2022-11-10T09:49:21.133Z,20.85
2022-11-10T09:50:41.382Z,28.70
2022-11-10T09:51:53.465Z,23.60
2022-11-10T09:53:08.890Z,24.35
2022-11-10T09:54:38.929Z,23.38
2022-11-10T09:55:53.313Z,21.52
2022-11-10T09:57:06.088Z,19.73
2022-11-10T09:58:18.447Z,20.38
2022-11-10T09:59:32.332Z,22.20
2022-11-10T10:00:49.712Z,24.77
2022-11-10T10:02:09.069Z,22.33
2022-11-10T10:03:24.616Z,16.55
2022-11-10T10:04:41.963Z,21.38
2022-11-10T10:06:02.408Z,22.15
2022-11-10T10:07:13.965Z,20.77
2022-11-10T10:08:31.390Z,21.73
2022-11-10T10:09:46.838Z,21.27
2022-11-10T10:11:12.402Z,26.70
2022-11-10T10:12:42.633Z,24.98
2022-11-10T10:14:02.979Z,23.42
2022-11-10T10:15:17.253Z,23.15
2022-11-10T10:16:28.680Z,25.52
2022-11-10T10:17:46.124Z,20.50
2022-11-10T10:18:57.548Z,21.42
2022-11-10T10:20:12.648Z,24.75
2022-11-10T10:21:43.834Z,20.25
2022-11-10T10:23:13.742Z,22.93
2022-11-10T10:24:28.042Z,21.13
2022-11-10T10:25:41.427Z,21.30
2022-11-10T10:26:56.861Z,24.63
2022-11-10T10:28:20.211Z,26.00
2022-11-10T10:29:37.631Z,20.05
2022-11-10T10:30:49.390Z,22.13
2022-11-10T10:32:01.275Z,21.25
2022-11-10T10:33:17.935Z,19.30
2022-11-10T10:34:30.736Z,23.83
2022-11-10T10:35:43.670Z,20.13
2022-11-10T10:36:55.138Z,18.77
2022-11-10T10:38:12.281Z,21.47
2022-11-10T10:39:32.042Z,24.77
2022-11-10T10:40:44.264Z,20.90
2022-11-10T10:41:56.163Z,21.25
2022-11-10T10:43:07.628Z,18.95
2022-11-10T10:44:19.682Z,24.33
2022-11-10T10:45:32.411Z,19.17
2022-11-10T10:46:48.799Z,20.27
2022-11-10T10:48:01.425Z,22.20
2022-11-10T10:49:28.658Z,19.73
2022-11-10T10:50:43.004Z,20.37
2022-11-10T10:52:14.739Z,19.63
2022-11-10T10:53:26.299Z,19.50
2022-11-10T10:54:38.380Z,21.60
2022-11-10T10:56:01.748Z,18.23
2022-11-10T10:57:21.004Z,18.20
2022-11-10T10:58:37.116Z,20.03
2022-11-10T10:59:48.884Z,19.70
2022-11-10T11:01:12.625Z,18.53
2022-11-10T11:02:26.760Z,21.37
2022-11-10T11:03:50.051Z,17.47
2022-11-10T11:05:15.293Z,19.00
2022-11-10T11:06:28.756Z,19.20
2022-11-10T11:07:40.229Z,20.67
2022-11-10T11:08:59.210Z,18.53
2022-11-10T11:10:20.782Z,17.80
2022-11-10T11:11:33.407Z,20.27
2022-11-10T11:12:47.006Z,19.13
2022-11-10T11:14:17.005Z,20.33
2022-11-10T11:15:29.670Z,24.23
2022-11-10T11:16:51.960Z,19.17
2022-11-10T11:18:12.967Z,21.20
2022-11-10T11:19:25.626Z,22.03
2022-11-10T11:20:55.437Z,25.53
2022-11-10T11:22:15.734Z,22.87
2022-11-10T11:23:27.171Z,20.27
2022-11-10T11:24:41.473Z,21.00
2022-11-10T11:25:55.106Z,20.20
2022-11-10T11:27:18.117Z,22.03
2022-11-10T11:28:38.141Z,19.03
2022-11-10T11:29:56.897Z,21.07
2022-11-10T11:31:08.344Z,19.30
2022-11-10T11:32:38.577Z,21.13
2022-11-10T11:34:00.692Z,17.93
2022-11-10T11:35:12.131Z,21.30
2022-11-10T11:36:40.427Z,29.97
2022-11-10T11:38:10.367Z,35.47
2022-11-10T11:39:42.037Z,25.67
2022-11-10T11:40:53.527Z,24.37
2022-11-10T11:42:07.782Z,24.03
2022-11-10T11:43:19.210Z,35.53
2022-11-10T11:44:34.886Z,31.60
2022-11-10T11:46:02.209Z,21.00
2022-11-10T11:47:19.993Z,18.90
2022-11-10T11:48:36.423Z,19.80
2022-11-10T11:50:03.077Z,48.97
2022-11-10T11:51:22.213Z,20.20
2022-11-10T11:52:36.222Z,22.87
2022-11-10T11:53:56.933Z,20.47
2022-11-10T11:55:08.353Z,18.33
2022-11-10T11:56:34.249Z,21.37
2022-11-10T11:57:48.532Z,19.00
2022-11-10T11:59:03.024Z,26.33
2022-11-10T12:00:15.697Z,42.40
2022-11-10T12:01:43.392Z,27.57
2022-11-10T12:03:17.909Z,26.47
2022-11-10T12:04:35.659Z,23.00
2022-11-10T12:06:06.050Z,33.63
2022-11-10T12:07:36.187Z,30.67
2022-11-10T12:08:47.613Z,22.50
2022-11-10T12:10:18.048Z,21.03
2022-11-10T12:11:44.271Z,25.47
2022-11-10T12:13:04.695Z,24.43
2022-11-10T12:14:26.715Z,20.30
2022-11-10T12:15:38.430Z,27.77
2022-11-10T12:17:01.175Z,22.80
2022-11-10T12:18:21.965Z,20.07
2022-11-10T12:33:54.319Z,26.37
2022-11-10T12:35:07.870Z,27.70
2022-11-10T12:36:20.190Z,19.90
2022-11-10T12:37:37.804Z,18.03
2022-11-10T12:38:59.503Z,19.53
2022-11-10T12:40:19.411Z,19.23
2022-11-10T12:41:39.607Z,20.57
2022-11-10T12:43:01.203Z,19.90
2022-11-10T12:44:36.580Z,21.10
2022-11-10T12:45:54.621Z,17.87
2022-11-10T12:47:07.131Z,21.77
2022-11-10T12:48:19.087Z,17.50
2022-11-10T12:49:36.096Z,19.63
2022-11-10T12:51:04.665Z,19.17
2022-11-10T12:52:22.255Z,19.10
2022-11-10T12:53:46.175Z,38.27
2022-11-10T12:55:00.861Z,19.43
2022-11-10T12:56:25.978Z,17.07
2022-11-10T12:57:37.573Z,17.70
2022-11-10T12:58:49.082Z,17.83
2022-11-10T13:00:26.813Z,16.03
2022-11-10T13:01:43.119Z,52.10
2022-11-10T13:02:55.725Z,23.23
2022-11-10T13:04:07.249Z,22.37
2022-11-10T13:05:30.885Z,18.50
2022-11-10T13:06:49.628Z,16.77
2022-11-10T13:08:06.388Z,22.23
2022-11-10T13:09:24.817Z,18.83
2022-11-10T13:10:51.551Z,32.93
2022-11-10T13:12:23.370Z,22.03
2022-11-10T13:13:58.113Z,32.33
2022-11-10T13:15:31.979Z,18.83
2022-11-10T13:16:44.866Z,15.30
2022-11-10T13:17:57.911Z,18.00
2022-11-10T13:19:10.300Z,22.20
2022-11-10T13:20:59.871Z,20.63
2022-11-10T13:22:12.366Z,18.80
2022-11-10T13:23:30.016Z,22.97
2022-11-10T13:24:43.115Z,22.00
2022-11-10T13:25:57.859Z,15.47
2022-11-10T13:27:13.631Z,19.30
2022-11-10T13:28:43.984Z,20.63
2022-11-10T13:29:57.265Z,20.00
2022-11-10T13:31:26.987Z,18.87
2022-11-10T13:32:38.698Z,16.17
2022-11-10T13:34:08.363Z,24.20
2022-11-10T13:35:28.906Z,26.53
2022-11-10T13:36:44.566Z,19.97
2022-11-10T13:37:59.057Z,27.77
2022-11-10T13:39:19.588Z,24.80
2022-11-10T13:40:34.391Z,20.87
2022-11-10T13:41:47.190Z,20.90
2022-11-10T13:42:58.644Z,22.80
2022-11-10T13:44:28.231Z,25.73
2022-11-10T13:45:45.240Z,23.53
2022-11-10T13:47:11.528Z,30.00
2022-11-10T13:48:25.912Z,22.63
2022-11-10T13:49:37.429Z,19.97
2022-11-10T13:51:11.972Z,24.17
2022-11-10T13:52:25.267Z,20.20
2022-11-10T13:54:00.101Z,21.20
2022-11-10T13:55:20.276Z,22.80
2022-11-10T13:56:31.767Z,23.53
2022-11-10T13:58:00.241Z,20.93
2022-11-10T13:59:18.906Z,23.50
2022-11-10T14:00:32.154Z,22.37
2022-11-10T14:01:43.592Z,18.40
2022-11-10T14:03:00.903Z,18.87
2022-11-10T14:04:48.923Z,22.93
2022-11-10T14:06:03.378Z,21.87
2022-11-10T14:07:20.995Z,19.77
2022-11-10T14:08:35.889Z,24.37
2022-11-10T14:09:53.744Z,22.87
2022-11-10T14:11:07.736Z,22.37
2022-11-10T14:12:37.303Z,20.10
2022-11-10T14:13:57.515Z,18.30
2022-11-10T14:15:17.529Z,20.50
2022-11-10T14:16:34.515Z,16.83
2022-11-10T14:17:52.874Z,19.13
2022-11-10T14:19:10.403Z,23.17
2022-11-10T14:20:28.076Z,19.40
2022-11-10T14:21:45.579Z,20.50
2022-11-10T14:22:59.434Z,25.87
2022-11-10T14:24:22.899Z,40.57
2022-11-10T14:25:41.156Z,48.67
2022-11-10T14:26:53.932Z,39.13
2022-11-10T14:28:26.462Z,38.53
2022-11-10T14:29:39.256Z,27.97
2022-11-10T14:30:51.612Z,27.13
2022-11-10T14:32:04.412Z,26.83
2022-11-10T14:33:15.922Z,27.57
2022-11-10T14:34:27.842Z,22.70
2022-11-10T14:35:59.660Z,23.93
2022-11-10T14:37:15.499Z,28.23
2022-11-10T14:38:28.747Z,24.70
2022-11-10T14:39:41.250Z,22.77
2022-11-10T14:40:57.476Z,21.97
2022-11-10T14:42:14.310Z,24.70
2022-11-10T14:43:27.528Z,25.60
2022-11-10T14:44:41.308Z,23.83
2022-11-10T14:45:53.699Z,23.13
2022-11-10T14:47:15.724Z,23.40
2022-11-10T14:48:36.046Z,25.57
2022-11-10T14:49:55.024Z,23.90
2022-11-10T14:51:16.831Z,23.03
2022-11-10T14:52:28.355Z,34.23
2022-11-10T14:53:41.389Z,33.33
2022-11-10T14:54:52.849Z,46.57
2022-11-10T14:56:06.030Z,38.57
2022-11-10T14:57:18.781Z,40.13
2022-11-10T14:58:37.727Z,42.43
2022-11-10T14:59:49.256Z,33.37
2022-11-10T15:01:01.544Z,33.57
2022-11-10T15:02:15.027Z,28.30
2022-11-10T15:03:46.719Z,27.63
2022-11-10T15:04:58.610Z,28.92
2022-11-10T15:06:11.234Z,30.73
2022-11-10T15:07:22.899Z,36.55
2022-11-10T15:08:34.784Z,31.10
2022-11-10T15:10:04.953Z,40.40
2022-11-10T15:11:35.441Z,40.53
2022-11-10T15:12:58.361Z,41.33
2022-11-10T15:14:28.606Z,45.40
2022-11-10T15:15:43.405Z,38.53
2022-11-10T15:17:21.789Z,38.63
2022-11-10T15:18:33.853Z,38.80
2022-11-10T15:19:45.261Z,41.47
2022-11-10T15:21:00.114Z,42.97
2022-11-10T15:22:29.428Z,42.95
2022-11-10T15:23:41.247Z,48.65
2022-11-10T15:24:52.862Z,52.55
2022-11-10T15:26:05.080Z,53.17
2022-11-10T15:27:27.353Z,39.85
2022-11-10T15:28:41.818Z,44.05
2022-11-10T15:29:53.841Z,41.13
2022-11-10T15:31:07.589Z,40.50
2022-11-10T15:32:21.388Z,49.05
2022-11-10T15:33:34.278Z,35.72
2022-11-10T15:34:46.165Z,37.85
2022-11-10T15:36:13.430Z,36.25
2022-11-10T15:37:30.827Z,35.40
2022-11-10T15:38:42.692Z,32.75
2022-11-10T15:40:14.081Z,51.25
2022-11-10T15:41:27.495Z,80.68
2022-11-10T15:42:39.291Z,80.15
2022-11-10T15:43:50.726Z,80.00
2022-11-10T15:45:02.187Z,70.43
2022-11-10T15:46:18.813Z,68.15
2022-11-10T15:47:30.467Z,55.65
2022-11-10T15:48:46.894Z,74.03
2022-11-10T15:49:58.434Z,79.82
2022-11-10T15:51:11.182Z,76.03
2022-11-10T15:52:23.031Z,51.63
2022-11-10T15:53:37.480Z,62.97
2022-11-10T15:54:49.857Z,52.85
2022-11-10T15:56:01.308Z,46.20
2022-11-10T15:57:13.955Z,43.67
2022-11-10T15:58:27.341Z,40.00
2022-11-10T15:59:38.809Z,43.15
2022-11-10T16:00:50.685Z,50.53
2022-11-10T16:02:02.262Z,46.67
2022-11-10T16:03:14.966Z,69.80
2022-11-10T16:04:27.452Z,59.83
2022-11-10T16:05:42.085Z,63.90
2022-11-10T16:06:53.691Z,70.00
2022-11-10T16:08:08.578Z,56.38
2022-11-10T16:09:20.005Z,60.17
2022-11-10T16:10:31.558Z,43.42
2022-11-10T16:11:44.232Z,53.78
2022-11-10T16:12:55.834Z,51.60
2022-11-10T16:14:11.180Z,50.65
2022-11-10T16:15:22.684Z,45.50